Astrahanka, Russia
Current Conditions -  °F | °C
As of 1:30 AM on Monday 22 Dec 2014 (Local Time) from UHWW Reporting Station
Scattered Clouds Scattered Clouds  
Wind Chill: -15°   Ceiling: Unl
Heat Index: -15°   Visibility: 6mi
Dew Point: -20°   Wind: 2mph
Humidity: 77%   Direction: NA
Pressure: 29.94"   Gusts: NA
Location:  44.72°N, 132.07°E
Report Text: UHWW 211530Z VRB01MPS 9999 SCT100 M26/M29 Q1014 NOSIG RMKQFE760/1013 57CLRD60
Loading
Personal Weather Stations






























Interactive Weather Map New forecast layout! Learn more

10-Day Weather Forecast

Advertisements
Track Severe Weather on mobile